createdAt,value
2022-12-25T00:00:21.206Z,4.85
2022-12-25T00:05:23.788Z,4.00
2022-12-25T00:10:26.029Z,3.60
2022-12-25T00:15:28.158Z,4.18
2022-12-25T00:20:30.224Z,4.32
2022-12-25T00:25:32.377Z,5.25
2022-12-25T00:30:34.530Z,5.80
2022-12-25T00:35:37.198Z,4.82
2022-12-25T00:45:55.798Z,3.80
2022-12-25T00:51:00.558Z,3.20
2022-12-25T00:56:05.934Z,5.03
2022-12-25T01:01:11.023Z,3.33
2022-12-25T01:06:13.442Z,3.60
2022-12-25T01:11:15.569Z,3.45
2022-12-25T01:16:18.479Z,3.80
2022-12-25T01:21:21.715Z,3.10
2022-12-25T01:26:25.986Z,4.20
2022-12-25T01:31:28.627Z,2.90
2022-12-25T01:41:32.934Z,2.17
2022-12-25T01:46:35.740Z,2.83
2022-12-25T01:51:49.357Z,3.67
2022-12-25T01:56:53.873Z,3.75
2022-12-25T02:01:57.400Z,3.37
2022-12-25T02:06:59.865Z,2.40
2022-12-25T02:12:02.118Z,3.40
2022-12-25T02:17:36.265Z,2.97
2022-12-25T02:27:57.396Z,3.17
2022-12-25T02:33:25.038Z,3.80
2022-12-25T02:38:36.512Z,2.65
2022-12-25T02:44:02.490Z,2.40
2022-12-25T02:49:35.669Z,2.25
2022-12-25T02:55:00.805Z,2.80
2022-12-25T03:00:23.574Z,2.20
2022-12-25T03:05:46.911Z,2.57
2022-12-25T03:11:20.949Z,2.55
2022-12-25T03:16:41.744Z,2.17
2022-12-25T03:22:02.530Z,2.30
2022-12-25T03:27:04.671Z,1.70
2022-12-25T03:32:10.893Z,1.87
2022-12-25T03:37:44.737Z,1.90
2022-12-25T03:43:12.511Z,1.62
2022-12-25T03:48:35.223Z,1.80
2022-12-25T03:54:17.675Z,1.67
2022-12-25T03:59:40.489Z,2.25
2022-12-25T04:05:01.443Z,2.30
2022-12-25T04:10:22.836Z,1.85
2022-12-25T04:15:43.854Z,2.67
2022-12-25T04:21:04.681Z,2.00
2022-12-25T04:26:25.580Z,2.00
2022-12-25T04:31:46.341Z,2.33
2022-12-25T04:36:48.451Z,2.50
2022-12-25T04:41:50.540Z,2.40
2022-12-25T04:46:52.796Z,3.03
2022-12-25T04:51:55.220Z,2.15
2022-12-25T04:56:57.528Z,2.58
2022-12-25T05:01:59.855Z,2.60
2022-12-25T05:07:02.052Z,2.53
2022-12-25T05:12:04.488Z,2.37
2022-12-25T05:17:07.921Z,2.05
2022-12-25T05:22:10.034Z,2.65
2022-12-25T05:27:12.136Z,2.65
2022-12-25T05:32:14.351Z,2.87
2022-12-25T05:37:16.460Z,2.75
2022-12-25T05:42:18.610Z,2.85
2022-12-25T05:47:20.772Z,2.92
2022-12-25T05:52:23.419Z,2.95
2022-12-25T06:02:28.004Z,1.50
2022-12-25T06:07:31.009Z,2.90
2022-12-25T06:12:33.112Z,2.00
2022-12-25T06:17:35.270Z,1.98
2022-12-25T06:22:37.449Z,1.40
2022-12-25T06:27:39.652Z,2.25
2022-12-25T06:32:41.894Z,2.12
2022-12-25T06:37:44.059Z,2.22
2022-12-25T06:42:46.155Z,2.42
2022-12-25T06:47:48.305Z,2.05
2022-12-25T06:52:50.479Z,2.42
2022-12-25T06:57:52.615Z,2.20
2022-12-25T07:02:54.784Z,1.87
2022-12-25T07:07:56.988Z,2.42
2022-12-25T07:12:59.161Z,2.45
2022-12-25T07:18:01.654Z,2.00
2022-12-25T07:23:04.247Z,2.10
2022-12-25T07:28:06.464Z,2.33
2022-12-25T07:33:08.579Z,1.35
2022-12-25T07:38:11.239Z,2.50
2022-12-25T07:43:13.431Z,2.15
2022-12-25T07:48:17.083Z,2.45
2022-12-25T07:53:19.306Z,4.50
2022-12-25T07:58:23.571Z,3.15
2022-12-25T08:03:26.126Z,2.40
2022-12-25T08:08:28.586Z,2.17
2022-12-25T08:13:32.190Z,2.25
2022-12-25T08:18:36.199Z,3.45
2022-12-25T08:23:41.478Z,3.20
2022-12-25T08:28:43.789Z,3.60
2022-12-25T08:33:47.831Z,3.53
2022-12-25T08:38:51.238Z,3.40
2022-12-25T08:43:53.946Z,2.60
2022-12-25T08:48:56.858Z,3.00
2022-12-25T08:54:00.950Z,2.60
2022-12-25T08:59:03.346Z,2.53
2022-12-25T09:04:05.574Z,2.90
2022-12-25T09:09:07.881Z,3.00
2022-12-25T09:14:09.986Z,2.58
2022-12-25T09:19:12.073Z,3.33
2022-12-25T09:24:14.184Z,3.37
2022-12-25T09:29:17.981Z,3.62
2022-12-25T09:34:20.094Z,2.57
2022-12-25T09:39:23.355Z,3.42
2022-12-25T09:44:42.973Z,2.50
2022-12-25T09:50:06.801Z,3.53
2022-12-25T09:55:20.644Z,2.70
2022-12-25T10:00:26.103Z,3.97
2022-12-25T10:05:46.960Z,2.40
2022-12-25T10:10:56.141Z,3.27
2022-12-25T10:16:12.107Z,3.27
2022-12-25T10:21:18.253Z,2.65
2022-12-25T10:26:25.059Z,2.45
2022-12-25T10:31:30.292Z,1.90
2022-12-25T10:36:33.585Z,2.78
2022-12-25T10:41:50.996Z,2.50
2022-12-25T10:46:55.806Z,1.92
2022-12-25T10:51:58.247Z,2.58
2022-12-25T10:57:03.726Z,3.28
2022-12-25T11:02:20.046Z,2.25
2022-12-25T11:07:26.042Z,2.50
2022-12-25T11:12:48.631Z,1.90
2022-12-25T11:17:50.799Z,2.70
2022-12-25T11:22:53.081Z,2.78
2022-12-25T11:28:06.795Z,2.10
2022-12-25T11:33:13.594Z,2.53
2022-12-25T11:38:15.862Z,1.67
2022-12-25T11:43:41.219Z,2.10
2022-12-25T11:48:50.171Z,2.53
2022-12-25T11:53:58.136Z,3.17
2022-12-25T11:59:24.028Z,3.10
2022-12-25T12:04:46.447Z,4.12
2022-12-25T12:09:58.081Z,2.90
2022-12-25T12:15:21.803Z,2.37
2022-12-25T12:20:31.808Z,2.97
2022-12-25T12:25:40.518Z,2.75
2022-12-25T12:30:42.690Z,2.15
2022-12-25T12:35:45.068Z,2.85
2022-12-25T12:40:57.572Z,2.60
2022-12-25T12:46:31.500Z,3.13
2022-12-25T12:51:36.647Z,2.97
2022-12-25T12:56:38.794Z,3.40
2022-12-25T13:02:08.357Z,2.58
2022-12-25T13:07:31.987Z,2.83
2022-12-25T13:12:34.703Z,2.83
2022-12-25T13:17:37.561Z,2.90
2022-12-25T13:22:39.676Z,3.35
2022-12-25T13:27:41.785Z,2.85
2022-12-25T13:32:45.691Z,3.20
2022-12-25T13:37:48.246Z,3.15
2022-12-25T13:42:56.487Z,3.37
2022-12-25T13:48:09.323Z,3.25
2022-12-25T13:53:16.679Z,2.95
2022-12-25T13:58:22.921Z,2.58
2022-12-25T14:03:39.188Z,2.22
2022-12-25T14:08:41.709Z,3.78
2022-12-25T14:13:45.379Z,3.33
2022-12-25T14:18:58.956Z,2.60
2022-12-25T14:24:01.359Z,3.25
2022-12-25T14:29:11.189Z,2.90
2022-12-25T14:34:22.854Z,2.53
2022-12-25T14:39:35.372Z,3.55
2022-12-25T14:44:39.846Z,2.97
2022-12-25T14:49:42.559Z,3.22
2022-12-25T15:00:08.068Z,4.50
2022-12-25T15:05:30.567Z,3.47
2022-12-25T15:16:06.270Z,2.78
2022-12-25T15:21:17.548Z,3.95
2022-12-25T15:26:19.776Z,5.62
2022-12-25T15:31:27.498Z,5.00
2022-12-25T15:36:30.188Z,4.07
2022-12-25T15:41:54.390Z,3.60
2022-12-25T15:46:57.836Z,2.70
2022-12-25T15:52:00.008Z,3.58
2022-12-25T15:57:04.973Z,2.85
2022-12-25T16:02:18.784Z,3.97
2022-12-25T16:07:23.672Z,5.43
2022-12-25T16:12:26.306Z,5.00
2022-12-25T16:22:31.803Z,4.30
2022-12-25T16:27:33.926Z,3.92
2022-12-25T16:32:36.052Z,3.47
2022-12-25T16:37:39.055Z,4.05
2022-12-25T16:42:41.245Z,3.97
2022-12-25T16:47:43.392Z,2.95
2022-12-25T16:52:45.929Z,4.32
2022-12-25T16:57:51.039Z,4.10
2022-12-25T17:02:53.401Z,4.63
2022-12-25T17:07:56.042Z,4.55
2022-12-25T17:12:58.152Z,7.18
2022-12-25T17:18:00.251Z,5.62
2022-12-25T17:23:02.412Z,4.93
2022-12-25T17:28:04.812Z,4.93
2022-12-25T17:33:06.915Z,4.55
2022-12-25T17:38:09.461Z,5.20
2022-12-25T17:43:15.793Z,4.72
2022-12-25T17:48:22.745Z,4.23
2022-12-25T17:53:24.882Z,5.50
2022-12-25T17:58:27.522Z,5.57
2022-12-25T18:08:38.644Z,5.83
2022-12-25T18:13:44.725Z,5.20
2022-12-25T18:18:51.750Z,4.10
2022-12-25T18:23:54.823Z,3.50
2022-12-25T18:28:57.599Z,3.65
2022-12-25T18:34:01.399Z,5.40
2022-12-25T18:39:03.656Z,6.37
2022-12-25T18:44:05.788Z,4.90
2022-12-25T18:49:08.501Z,5.72
2022-12-25T18:59:12.680Z,3.07
2022-12-25T19:04:16.201Z,3.00
2022-12-25T19:09:18.493Z,3.08
2022-12-25T19:14:20.673Z,2.65
2022-12-25T19:19:24.342Z,2.95
2022-12-25T19:24:26.483Z,2.72
2022-12-25T19:29:28.774Z,2.10
2022-12-25T19:34:31.032Z,2.97
2022-12-25T19:39:33.149Z,2.97
2022-12-25T19:44:35.224Z,3.40
2022-12-25T19:49:37.429Z,2.60
2022-12-25T19:54:39.598Z,2.50
2022-12-25T19:59:41.703Z,2.60
2022-12-25T20:04:43.925Z,2.87
2022-12-25T20:09:46.177Z,3.62
2022-12-25T20:14:49.301Z,2.58
2022-12-25T20:19:51.407Z,2.67
2022-12-25T20:24:53.561Z,2.80
2022-12-25T20:29:55.697Z,5.55
2022-12-25T20:34:57.859Z,3.35
2022-12-25T20:40:00.010Z,2.67
2022-12-25T20:45:02.693Z,2.60
2022-12-25T20:55:07.444Z,2.93
2022-12-25T21:00:10.681Z,3.20
2022-12-25T21:05:12.790Z,3.65
2022-12-25T21:10:14.920Z,3.20
2022-12-25T21:15:17.094Z,2.42
2022-12-25T21:20:19.303Z,7.40
2022-12-25T21:25:21.380Z,4.57
2022-12-25T21:30:23.487Z,2.83
2022-12-25T21:35:25.710Z,2.35
2022-12-25T21:40:27.892Z,2.90
2022-12-25T21:45:30.820Z,2.85
2022-12-25T21:50:51.493Z,2.67
2022-12-25T21:55:58.604Z,2.60
2022-12-25T22:01:05.074Z,2.53
2022-12-25T22:06:25.700Z,2.73
2022-12-25T22:11:46.575Z,2.50
2022-12-25T22:17:07.687Z,2.60
2022-12-25T22:22:11.203Z,2.10
2022-12-25T22:27:13.775Z,2.20
2022-12-25T22:32:16.854Z,2.42
2022-12-25T22:37:19.518Z,4.67
2022-12-25T22:42:21.717Z,3.72
2022-12-25T22:47:23.874Z,2.45
2022-12-25T22:52:26.789Z,3.33
2022-12-25T22:57:29.294Z,2.67
2022-12-25T23:02:31.604Z,2.12
2022-12-25T23:07:33.958Z,2.47
2022-12-25T23:12:54.718Z,2.90
2022-12-25T23:18:15.609Z,3.40
2022-12-25T23:23:36.535Z,2.80
2022-12-25T23:29:01.761Z,3.10
2022-12-25T23:34:05.506Z,4.40
2022-12-25T23:39:10.451Z,3.00
2022-12-25T23:44:14.055Z,3.60
2022-12-25T23:49:16.900Z,2.10
2022-12-25T23:54:22.937Z,2.33
2022-12-25T23:59:26.953Z,3.42
